sensor_id;sensor_type;location;lat;lon;timestamp;P1;durP1;ratioP1;P2;durP2;ratioP2
76021;SDS011;64718;52.124;6.226;2022-12-11T00:01:46;38.83;;;10.70;;
76021;SDS011;64718;52.124;6.226;2022-12-11T00:04:13;38.00;;;13.43;;
76021;SDS011;64718;52.124;6.226;2022-12-11T00:06:39;42.75;;;13.38;;
76021;SDS011;64718;52.124;6.226;2022-12-11T00:09:06;42.90;;;12.40;;
76021;SDS011;64718;52.124;6.226;2022-12-11T00:11:33;45.63;;;11.60;;
76021;SDS011;64718;52.124;6.226;2022-12-11T00:13:59;34.47;;;10.65;;
76021;SDS011;64718;52.124;6.226;2022-12-11T00:16:27;37.47;;;11.38;;
76021;SDS011;64718;52.124;6.226;2022-12-11T00:18:54;40.95;;;11.25;;
76021;SDS011;64718;52.124;6.226;2022-12-11T00:21:20;41.88;;;12.68;;
76021;SDS011;64718;52.124;6.226;2022-12-11T00:23:47;45.88;;;14.02;;
76021;SDS011;64718;52.124;6.226;2022-12-11T00:26:14;33.85;;;11.98;;
76021;SDS011;64718;52.124;6.226;2022-12-11T00:28:41;41.80;;;12.38;;
76021;SDS011;64718;52.124;6.226;2022-12-11T00:31:10;46.92;;;13.07;;
76021;SDS011;64718;52.124;6.226;2022-12-11T00:33:40;45.10;;;10.98;;
76021;SDS011;64718;52.124;6.226;2022-12-11T00:36:09;40.58;;;11.63;;
76021;SDS011;64718;52.124;6.226;2022-12-11T00:38:37;37.83;;;11.30;;
76021;SDS011;64718;52.124;6.226;2022-12-11T00:41:03;41.42;;;13.00;;
76021;SDS011;64718;52.124;6.226;2022-12-11T00:43:30;36.22;;;12.48;;
76021;SDS011;64718;52.124;6.226;2022-12-11T00:45:57;49.83;;;12.95;;
76021;SDS011;64718;52.124;6.226;2022-12-11T00:48:23;40.35;;;11.63;;
76021;SDS011;64718;52.124;6.226;2022-12-11T00:50:52;37.65;;;10.52;;
76021;SDS011;64718;52.124;6.226;2022-12-11T00:53:18;49.70;;;13.30;;
76021;SDS011;64718;52.124;6.226;2022-12-11T00:55:45;40.03;;;12.48;;
76021;SDS011;64718;52.124;6.226;2022-12-11T00:58:11;45.70;;;12.77;;
76021;SDS011;64718;52.124;6.226;2022-12-11T01:00:39;38.30;;;11.15;;
76021;SDS011;64718;52.124;6.226;2022-12-11T01:03:07;53.42;;;12.98;;
76021;SDS011;64718;52.124;6.226;2022-12-11T01:05:35;42.97;;;12.77;;
76021;SDS011;64718;52.124;6.226;2022-12-11T01:08:03;32.92;;;10.68;;
76021;SDS011;64718;52.124;6.226;2022-12-11T01:10:30;44.15;;;11.18;;
76021;SDS011;64718;52.124;6.226;2022-12-11T01:12:57;46.05;;;12.98;;
76021;SDS011;64718;52.124;6.226;2022-12-11T01:15:26;39.08;;;12.00;;
76021;SDS011;64718;52.124;6.226;2022-12-11T01:17:54;42.30;;;11.02;;
76021;SDS011;64718;52.124;6.226;2022-12-11T01:20:22;47.95;;;12.90;;
76021;SDS011;64718;52.124;6.226;2022-12-11T01:22:50;45.03;;;13.30;;
76021;SDS011;64718;52.124;6.226;2022-12-11T01:25:19;39.33;;;12.35;;
76021;SDS011;64718;52.124;6.226;2022-12-11T01:27:46;50.42;;;11.52;;
76021;SDS011;64718;52.124;6.226;2022-12-11T01:30:15;53.58;;;12.38;;
76021;SDS011;64718;52.124;6.226;2022-12-11T01:32:41;54.10;;;12.82;;
76021;SDS011;64718;52.124;6.226;2022-12-11T01:35:09;54.17;;;14.52;;
76021;SDS011;64718;52.124;6.226;2022-12-11T01:37:36;46.13;;;12.57;;
76021;SDS011;64718;52.124;6.226;2022-12-11T01:40:04;48.78;;;13.57;;
76021;SDS011;64718;52.124;6.226;2022-12-11T01:42:34;54.13;;;15.23;;
76021;SDS011;64718;52.124;6.226;2022-12-11T01:47:59;52.55;;;13.75;;
76021;SDS011;64718;52.124;6.226;2022-12-11T01:50:31;44.75;;;11.02;;
76021;SDS011;64718;52.124;6.226;2022-12-11T01:53:00;39.67;;;11.95;;
76021;SDS011;64718;52.124;6.226;2022-12-11T01:55:29;43.47;;;12.68;;
76021;SDS011;64718;52.124;6.226;2022-12-11T01:57:58;45.28;;;12.40;;
76021;SDS011;64718;52.124;6.226;2022-12-11T02:00:25;50.17;;;12.60;;
76021;SDS011;64718;52.124;6.226;2022-12-11T02:02:52;44.88;;;11.95;;
76021;SDS011;64718;52.124;6.226;2022-12-11T02:05:19;46.30;;;13.38;;
76021;SDS011;64718;52.124;6.226;2022-12-11T02:07:47;44.25;;;13.10;;
76021;SDS011;64718;52.124;6.226;2022-12-11T02:10:16;49.33;;;13.23;;
76021;SDS011;64718;52.124;6.226;2022-12-11T02:12:47;48.13;;;14.32;;
76021;SDS011;64718;52.124;6.226;2022-12-11T02:15:22;45.63;;;13.43;;
76021;SDS011;64718;52.124;6.226;2022-12-11T02:17:57;54.20;;;12.77;;
76021;SDS011;64718;52.124;6.226;2022-12-11T02:23:13;45.88;;;12.18;;
76021;SDS011;64718;52.124;6.226;2022-12-11T02:25:51;50.63;;;13.00;;
76021;SDS011;64718;52.124;6.226;2022-12-11T02:28:29;49.10;;;12.63;;
76021;SDS011;64718;52.124;6.226;2022-12-11T02:30:59;44.85;;;13.65;;
76021;SDS011;64718;52.124;6.226;2022-12-11T02:33:31;48.97;;;13.48;;
76021;SDS011;64718;52.124;6.226;2022-12-11T02:36:01;47.13;;;12.60;;
76021;SDS011;64718;52.124;6.226;2022-12-11T02:38:30;45.38;;;13.35;;
76021;SDS011;64718;52.124;6.226;2022-12-11T02:41:00;49.00;;;12.70;;
76021;SDS011;64718;52.124;6.226;2022-12-11T02:43:31;41.53;;;12.55;;
76021;SDS011;64718;52.124;6.226;2022-12-11T02:45:59;44.45;;;11.60;;
76021;SDS011;64718;52.124;6.226;2022-12-11T02:48:29;38.80;;;12.75;;
76021;SDS011;64718;52.124;6.226;2022-12-11T02:50:57;45.05;;;11.95;;
76021;SDS011;64718;52.124;6.226;2022-12-11T02:53:26;50.70;;;13.20;;
76021;SDS011;64718;52.124;6.226;2022-12-11T02:56:00;49.95;;;12.25;;
76021;SDS011;64718;52.124;6.226;2022-12-11T02:58:34;47.97;;;11.43;;
76021;SDS011;64718;52.124;6.226;2022-12-11T03:01:07;44.30;;;12.55;;
76021;SDS011;64718;52.124;6.226;2022-12-11T03:03:34;41.22;;;12.35;;
76021;SDS011;64718;52.124;6.226;2022-12-11T03:06:00;48.22;;;13.02;;
76021;SDS011;64718;52.124;6.226;2022-12-11T03:08:28;51.40;;;12.75;;
76021;SDS011;64718;52.124;6.226;2022-12-11T03:10:55;50.00;;;12.50;;
76021;SDS011;64718;52.124;6.226;2022-12-11T03:13:22;48.45;;;13.60;;
76021;SDS011;64718;52.124;6.226;2022-12-11T03:15:53;48.42;;;15.15;;
76021;SDS011;64718;52.124;6.226;2022-12-11T03:18:29;49.88;;;13.15;;
76021;SDS011;64718;52.124;6.226;2022-12-11T03:21:02;52.97;;;12.85;;
76021;SDS011;64718;52.124;6.226;2022-12-11T03:23:32;52.22;;;13.05;;
76021;SDS011;64718;52.124;6.226;2022-12-11T03:26:05;51.92;;;12.75;;
76021;SDS011;64718;52.124;6.226;2022-12-11T03:28:36;52.67;;;12.57;;
76021;SDS011;64718;52.124;6.226;2022-12-11T03:31:12;48.53;;;11.73;;
76021;SDS011;64718;52.124;6.226;2022-12-11T03:33:44;46.17;;;13.32;;
76021;SDS011;64718;52.124;6.226;2022-12-11T03:36:13;47.33;;;12.55;;
76021;SDS011;64718;52.124;6.226;2022-12-11T03:38:46;59.50;;;13.30;;
76021;SDS011;64718;52.124;6.226;2022-12-11T03:41:17;46.58;;;13.10;;
76021;SDS011;64718;52.124;6.226;2022-12-11T03:43:47;49.42;;;11.85;;
76021;SDS011;64718;52.124;6.226;2022-12-11T03:48:46;56.28;;;12.52;;
76021;SDS011;64718;52.124;6.226;2022-12-11T03:51:14;47.13;;;13.35;;
76021;SDS011;64718;52.124;6.226;2022-12-11T03:53:42;51.63;;;13.80;;
76021;SDS011;64718;52.124;6.226;2022-12-11T03:56:11;56.63;;;14.13;;
76021;SDS011;64718;52.124;6.226;2022-12-11T03:58:41;54.88;;;13.25;;
76021;SDS011;64718;52.124;6.226;2022-12-11T04:01:08;48.78;;;12.90;;
76021;SDS011;64718;52.124;6.226;2022-12-11T04:03:36;50.65;;;12.65;;
76021;SDS011;64718;52.124;6.226;2022-12-11T04:06:04;59.20;;;12.45;;
76021;SDS011;64718;52.124;6.226;2022-12-11T04:08:31;50.95;;;14.25;;
76021;SDS011;64718;52.124;6.226;2022-12-11T04:10:57;58.67;;;15.65;;
76021;SDS011;64718;52.124;6.226;2022-12-11T04:13:41;54.38;;;11.45;;
76021;SDS011;64718;52.124;6.226;2022-12-11T04:16:08;55.47;;;15.02;;
76021;SDS011;64718;52.124;6.226;2022-12-11T04:18:33;54.47;;;12.85;;
76021;SDS011;64718;52.124;6.226;2022-12-11T04:21:19;51.78;;;14.88;;
76021;SDS011;64718;52.124;6.226;2022-12-11T04:24:04;54.17;;;12.80;;
76021;SDS011;64718;52.124;6.226;2022-12-11T04:26:43;48.00;;;13.07;;
76021;SDS011;64718;52.124;6.226;2022-12-11T04:29:11;44.05;;;11.20;;
76021;SDS011;64718;52.124;6.226;2022-12-11T04:31:38;49.28;;;12.40;;
76021;SDS011;64718;52.124;6.226;2022-12-11T04:34:05;42.83;;;12.25;;
76021;SDS011;64718;52.124;6.226;2022-12-11T04:36:33;52.25;;;13.38;;
76021;SDS011;64718;52.124;6.226;2022-12-11T04:39:00;39.17;;;11.05;;
76021;SDS011;64718;52.124;6.226;2022-12-11T04:41:27;49.70;;;12.27;;
76021;SDS011;64718;52.124;6.226;2022-12-11T04:43:53;50.65;;;12.43;;
76021;SDS011;64718;52.124;6.226;2022-12-11T04:46:21;53.88;;;13.38;;
76021;SDS011;64718;52.124;6.226;2022-12-11T04:48:49;49.97;;;12.07;;
76021;SDS011;64718;52.124;6.226;2022-12-11T04:51:16;50.65;;;12.80;;
76021;SDS011;64718;52.124;6.226;2022-12-11T04:53:44;48.20;;;13.32;;
76021;SDS011;64718;52.124;6.226;2022-12-11T04:56:12;48.90;;;12.07;;
76021;SDS011;64718;52.124;6.226;2022-12-11T05:01:08;39.67;;;10.30;;
76021;SDS011;64718;52.124;6.226;2022-12-11T05:03:35;46.97;;;12.82;;
76021;SDS011;64718;52.124;6.226;2022-12-11T05:06:02;41.08;;;10.40;;
76021;SDS011;64718;52.124;6.226;2022-12-11T05:08:29;37.15;;;12.02;;
76021;SDS011;64718;52.124;6.226;2022-12-11T05:10:57;41.65;;;12.20;;
76021;SDS011;64718;52.124;6.226;2022-12-11T05:13:25;42.67;;;12.35;;
76021;SDS011;64718;52.124;6.226;2022-12-11T05:15:52;45.78;;;11.40;;
76021;SDS011;64718;52.124;6.226;2022-12-11T05:18:19;42.25;;;11.68;;
76021;SDS011;64718;52.124;6.226;2022-12-11T05:20:53;40.97;;;11.18;;
76021;SDS011;64718;52.124;6.226;2022-12-11T05:23:20;43.30;;;12.23;;
76021;SDS011;64718;52.124;6.226;2022-12-11T05:25:50;40.05;;;11.82;;
76021;SDS011;64718;52.124;6.226;2022-12-11T05:28:18;43.53;;;11.40;;
76021;SDS011;64718;52.124;6.226;2022-12-11T05:30:45;35.30;;;10.20;;
76021;SDS011;64718;52.124;6.226;2022-12-11T05:33:11;37.95;;;11.40;;
76021;SDS011;64718;52.124;6.226;2022-12-11T05:35:38;42.17;;;12.57;;
76021;SDS011;64718;52.124;6.226;2022-12-11T05:38:05;41.20;;;11.68;;
76021;SDS011;64718;52.124;6.226;2022-12-11T05:40:31;48.42;;;12.70;;
76021;SDS011;64718;52.124;6.226;2022-12-11T05:42:58;47.85;;;11.95;;
76021;SDS011;64718;52.124;6.226;2022-12-11T05:45:26;40.47;;;12.07;;
76021;SDS011;64718;52.124;6.226;2022-12-11T05:47:52;49.72;;;12.73;;
76021;SDS011;64718;52.124;6.226;2022-12-11T05:50:19;44.17;;;12.90;;
76021;SDS011;64718;52.124;6.226;2022-12-11T05:52:45;37.58;;;11.65;;
76021;SDS011;64718;52.124;6.226;2022-12-11T05:55:12;44.95;;;11.23;;
76021;SDS011;64718;52.124;6.226;2022-12-11T05:57:39;41.45;;;11.77;;
76021;SDS011;64718;52.124;6.226;2022-12-11T06:00:06;37.92;;;11.40;;
76021;SDS011;64718;52.124;6.226;2022-12-11T06:02:36;43.83;;;12.13;;
76021;SDS011;64718;52.124;6.226;2022-12-11T06:05:03;45.35;;;11.82;;
76021;SDS011;64718;52.124;6.226;2022-12-11T06:07:29;45.28;;;11.35;;
76021;SDS011;64718;52.124;6.226;2022-12-11T06:09:56;39.28;;;11.07;;
76021;SDS011;64718;52.124;6.226;2022-12-11T06:12:23;43.08;;;12.63;;
76021;SDS011;64718;52.124;6.226;2022-12-11T06:14:49;46.92;;;12.80;;
76021;SDS011;64718;52.124;6.226;2022-12-11T06:17:16;47.70;;;12.85;;
76021;SDS011;64718;52.124;6.226;2022-12-11T06:19:44;39.10;;;11.85;;
76021;SDS011;64718;52.124;6.226;2022-12-11T06:22:10;48.17;;;12.07;;
76021;SDS011;64718;52.124;6.226;2022-12-11T06:24:37;50.55;;;14.38;;
76021;SDS011;64718;52.124;6.226;2022-12-11T06:27:04;48.90;;;13.63;;
76021;SDS011;64718;52.124;6.226;2022-12-11T06:29:30;45.80;;;13.23;;
76021;SDS011;64718;52.124;6.226;2022-12-11T06:31:57;53.53;;;12.73;;
76021;SDS011;64718;52.124;6.226;2022-12-11T06:34:23;42.83;;;12.05;;
76021;SDS011;64718;52.124;6.226;2022-12-11T06:36:51;50.30;;;13.30;;
76021;SDS011;64718;52.124;6.226;2022-12-11T06:39:18;46.25;;;12.25;;
76021;SDS011;64718;52.124;6.226;2022-12-11T06:41:44;38.67;;;12.80;;
76021;SDS011;64718;52.124;6.226;2022-12-11T06:44:11;49.97;;;13.15;;
76021;SDS011;64718;52.124;6.226;2022-12-11T06:46:38;44.33;;;12.55;;
76021;SDS011;64718;52.124;6.226;2022-12-11T06:49:04;45.63;;;12.15;;
76021;SDS011;64718;52.124;6.226;2022-12-11T06:51:31;42.65;;;11.23;;
76021;SDS011;64718;52.124;6.226;2022-12-11T06:53:59;51.70;;;13.27;;
76021;SDS011;64718;52.124;6.226;2022-12-11T06:56:25;51.25;;;14.50;;
76021;SDS011;64718;52.124;6.226;2022-12-11T06:58:52;40.92;;;12.23;;
76021;SDS011;64718;52.124;6.226;2022-12-11T07:01:21;48.58;;;13.93;;
76021;SDS011;64718;52.124;6.226;2022-12-11T07:03:51;38.67;;;11.50;;
76021;SDS011;64718;52.124;6.226;2022-12-11T07:06:18;40.88;;;11.60;;
76021;SDS011;64718;52.124;6.226;2022-12-11T07:08:44;42.97;;;13.80;;
76021;SDS011;64718;52.124;6.226;2022-12-11T07:11:13;54.00;;;12.90;;
76021;SDS011;64718;52.124;6.226;2022-12-11T07:13:41;50.13;;;14.27;;
76021;SDS011;64718;52.124;6.226;2022-12-11T07:16:08;44.47;;;14.27;;
76021;SDS011;64718;52.124;6.226;2022-12-11T07:18:36;43.88;;;13.00;;
76021;SDS011;64718;52.124;6.226;2022-12-11T07:21:04;46.15;;;13.50;;
76021;SDS011;64718;52.124;6.226;2022-12-11T07:23:32;49.28;;;14.20;;
76021;SDS011;64718;52.124;6.226;2022-12-11T07:26:02;46.97;;;13.63;;
76021;SDS011;64718;52.124;6.226;2022-12-11T07:28:31;41.60;;;14.00;;
76021;SDS011;64718;52.124;6.226;2022-12-11T07:30:58;47.60;;;12.25;;
76021;SDS011;64718;52.124;6.226;2022-12-11T07:33:24;41.35;;;12.55;;
76021;SDS011;64718;52.124;6.226;2022-12-11T07:35:51;43.17;;;14.57;;
76021;SDS011;64718;52.124;6.226;2022-12-11T07:38:17;45.97;;;13.05;;
76021;SDS011;64718;52.124;6.226;2022-12-11T07:40:44;51.00;;;14.25;;
76021;SDS011;64718;52.124;6.226;2022-12-11T07:43:10;40.13;;;12.23;;
76021;SDS011;64718;52.124;6.226;2022-12-11T07:45:38;41.35;;;12.23;;
76021;SDS011;64718;52.124;6.226;2022-12-11T07:48:05;39.08;;;11.75;;
76021;SDS011;64718;52.124;6.226;2022-12-11T07:50:32;44.38;;;13.05;;
76021;SDS011;64718;52.124;6.226;2022-12-11T07:52:58;44.00;;;13.32;;
76021;SDS011;64718;52.124;6.226;2022-12-11T07:55:25;41.65;;;13.25;;
76021;SDS011;64718;52.124;6.226;2022-12-11T07:57:52;36.25;;;12.43;;
76021;SDS011;64718;52.124;6.226;2022-12-11T08:00:18;37.47;;;13.18;;
76021;SDS011;64718;52.124;6.226;2022-12-11T08:02:46;40.50;;;14.40;;
76021;SDS011;64718;52.124;6.226;2022-12-11T08:05:13;37.03;;;11.95;;
76021;SDS011;64718;52.124;6.226;2022-12-11T08:07:40;40.03;;;14.13;;
76021;SDS011;64718;52.124;6.226;2022-12-11T08:10:06;43.35;;;13.60;;
76021;SDS011;64718;52.124;6.226;2022-12-11T08:12:33;40.33;;;12.75;;
76021;SDS011;64718;52.124;6.226;2022-12-11T08:15:00;38.72;;;13.50;;
76021;SDS011;64718;52.124;6.226;2022-12-11T08:17:26;36.78;;;12.25;;
76021;SDS011;64718;52.124;6.226;2022-12-11T08:19:54;36.50;;;11.85;;
76021;SDS011;64718;52.124;6.226;2022-12-11T08:22:21;36.30;;;12.55;;
76021;SDS011;64718;52.124;6.226;2022-12-11T08:24:48;42.70;;;12.63;;
76021;SDS011;64718;52.124;6.226;2022-12-11T08:27:14;41.78;;;13.27;;
76021;SDS011;64718;52.124;6.226;2022-12-11T08:29:41;39.60;;;11.73;;
76021;SDS011;64718;52.124;6.226;2022-12-11T08:32:07;41.20;;;13.73;;
76021;SDS011;64718;52.124;6.226;2022-12-11T08:34:35;36.80;;;12.48;;
76021;SDS011;64718;52.124;6.226;2022-12-11T08:37:03;35.40;;;10.65;;
76021;SDS011;64718;52.124;6.226;2022-12-11T08:39:30;36.95;;;13.48;;
76021;SDS011;64718;52.124;6.226;2022-12-11T08:41:56;33.08;;;11.32;;
76021;SDS011;64718;52.124;6.226;2022-12-11T08:44:23;30.45;;;11.93;;
76021;SDS011;64718;52.124;6.226;2022-12-11T08:46:51;31.83;;;11.27;;
76021;SDS011;64718;52.124;6.226;2022-12-11T08:49:18;31.27;;;11.43;;
76021;SDS011;64718;52.124;6.226;2022-12-11T08:51:44;32.15;;;10.77;;
76021;SDS011;64718;52.124;6.226;2022-12-11T08:54:12;57.00;;;21.38;;
76021;SDS011;64718;52.124;6.226;2022-12-11T08:56:39;54.10;;;18.92;;
76021;SDS011;64718;52.124;6.226;2022-12-11T08:59:05;46.42;;;16.23;;
76021;SDS011;64718;52.124;6.226;2022-12-11T09:01:32;65.55;;;23.20;;
76021;SDS011;64718;52.124;6.226;2022-12-11T09:03:58;34.17;;;11.35;;
76021;SDS011;64718;52.124;6.226;2022-12-11T09:06:26;42.95;;;15.15;;
76021;SDS011;64718;52.124;6.226;2022-12-11T09:08:54;36.63;;;13.25;;
76021;SDS011;64718;52.124;6.226;2022-12-11T09:11:24;27.77;;;10.15;;
76021;SDS011;64718;52.124;6.226;2022-12-11T09:13:52;30.77;;;12.05;;
76021;SDS011;64718;52.124;6.226;2022-12-11T09:16:20;31.25;;;12.65;;
76021;SDS011;64718;52.124;6.226;2022-12-11T09:21:17;29.83;;;9.63;;
76021;SDS011;64718;52.124;6.226;2022-12-11T09:23:45;29.52;;;11.43;;
76021;SDS011;64718;52.124;6.226;2022-12-11T09:26:13;31.55;;;12.07;;
76021;SDS011;64718;52.124;6.226;2022-12-11T09:28:44;28.70;;;11.10;;
76021;SDS011;64718;52.124;6.226;2022-12-11T09:31:12;29.95;;;11.70;;
76021;SDS011;64718;52.124;6.226;2022-12-11T09:33:40;24.88;;;9.57;;
76021;SDS011;64718;52.124;6.226;2022-12-11T09:36:08;20.00;;;8.05;;
76021;SDS011;64718;52.124;6.226;2022-12-11T09:38:35;28.70;;;9.27;;
76021;SDS011;64718;52.124;6.226;2022-12-11T09:41:08;26.45;;;13.07;;
76021;SDS011;64718;52.124;6.226;2022-12-11T09:43:58;28.05;;;8.50;;
76021;SDS011;64718;52.124;6.226;2022-12-11T09:46:31;23.13;;;9.27;;
76021;SDS011;64718;52.124;6.226;2022-12-11T09:49:01;23.92;;;8.88;;
76021;SDS011;64718;52.124;6.226;2022-12-11T09:51:33;20.10;;;8.93;;
76021;SDS011;64718;52.124;6.226;2022-12-11T09:54:05;24.08;;;8.68;;
76021;SDS011;64718;52.124;6.226;2022-12-11T09:56:32;24.10;;;8.93;;
76021;SDS011;64718;52.124;6.226;2022-12-11T09:59:07;24.10;;;8.70;;
76021;SDS011;64718;52.124;6.226;2022-12-11T10:01:42;26.92;;;8.75;;
76021;SDS011;64718;52.124;6.226;2022-12-11T10:04:17;22.15;;;8.65;;
76021;SDS011;64718;52.124;6.226;2022-12-11T10:06:58;22.48;;;8.50;;
76021;SDS011;64718;52.124;6.226;2022-12-11T10:09:35;25.33;;;8.93;;
76021;SDS011;64718;52.124;6.226;2022-12-11T10:12:10;19.23;;;8.23;;
76021;SDS011;64718;52.124;6.226;2022-12-11T10:14:50;23.08;;;9.25;;
76021;SDS011;64718;52.124;6.226;2022-12-11T10:17:24;26.23;;;9.32;;
76021;SDS011;64718;52.124;6.226;2022-12-11T10:19:53;22.80;;;9.75;;
76021;SDS011;64718;52.124;6.226;2022-12-11T10:22:22;21.27;;;9.73;;
76021;SDS011;64718;52.124;6.226;2022-12-11T10:24:53;21.63;;;9.48;;
76021;SDS011;64718;52.124;6.226;2022-12-11T10:27:23;20.95;;;8.63;;
76021;SDS011;64718;52.124;6.226;2022-12-11T10:29:58;22.30;;;9.85;;
76021;SDS011;64718;52.124;6.226;2022-12-11T10:32:29;24.10;;;9.38;;
76021;SDS011;64718;52.124;6.226;2022-12-11T10:35:04;19.00;;;7.93;;
76021;SDS011;64718;52.124;6.226;2022-12-11T10:37:31;22.30;;;8.07;;
76021;SDS011;64718;52.124;6.226;2022-12-11T10:39:58;24.35;;;9.40;;
76021;SDS011;64718;52.124;6.226;2022-12-11T10:42:24;19.48;;;8.98;;
76021;SDS011;64718;52.124;6.226;2022-12-11T10:44:56;19.33;;;8.40;;
76021;SDS011;64718;52.124;6.226;2022-12-11T10:47:25;24.70;;;9.55;;
76021;SDS011;64718;52.124;6.226;2022-12-11T10:49:54;23.27;;;9.10;;
76021;SDS011;64718;52.124;6.226;2022-12-11T10:52:23;21.02;;;9.45;;
76021;SDS011;64718;52.124;6.226;2022-12-11T10:54:55;20.70;;;9.30;;
76021;SDS011;64718;52.124;6.226;2022-12-11T10:57:28;20.73;;;8.93;;
76021;SDS011;64718;52.124;6.226;2022-12-11T10:59:57;18.77;;;7.03;;
76021;SDS011;64718;52.124;6.226;2022-12-11T11:02:25;21.23;;;8.10;;
76021;SDS011;64718;52.124;6.226;2022-12-11T11:04:56;20.10;;;8.48;;
76021;SDS011;64718;52.124;6.226;2022-12-11T11:07:24;21.80;;;8.43;;
76021;SDS011;64718;52.124;6.226;2022-12-11T11:10:02;21.83;;;8.18;;
76021;SDS011;64718;52.124;6.226;2022-12-11T11:12:37;21.90;;;10.07;;
76021;SDS011;64718;52.124;6.226;2022-12-11T11:15:10;22.48;;;8.82;;
76021;SDS011;64718;52.124;6.226;2022-12-11T11:17:41;20.70;;;9.77;;
76021;SDS011;64718;52.124;6.226;2022-12-11T11:20:12;21.17;;;8.60;;
76021;SDS011;64718;52.124;6.226;2022-12-11T11:22:42;21.73;;;7.82;;
76021;SDS011;64718;52.124;6.226;2022-12-11T11:25:14;19.13;;;7.70;;
76021;SDS011;64718;52.124;6.226;2022-12-11T11:27:44;21.30;;;8.95;;
76021;SDS011;64718;52.124;6.226;2022-12-11T11:30:18;20.92;;;9.13;;
76021;SDS011;64718;52.124;6.226;2022-12-11T11:32:47;22.08;;;8.68;;
76021;SDS011;64718;52.124;6.226;2022-12-11T11:35:17;23.58;;;8.00;;
76021;SDS011;64718;52.124;6.226;2022-12-11T11:37:51;19.42;;;8.52;;
76021;SDS011;64718;52.124;6.226;2022-12-11T11:40:21;19.17;;;8.02;;
76021;SDS011;64718;52.124;6.226;2022-12-11T11:42:55;22.27;;;9.27;;
76021;SDS011;64718;52.124;6.226;2022-12-11T11:45:32;16.98;;;7.93;;
76021;SDS011;64718;52.124;6.226;2022-12-11T11:48:06;21.30;;;7.45;;
76021;SDS011;64718;52.124;6.226;2022-12-11T11:50:43;19.33;;;8.80;;
76021;SDS011;64718;52.124;6.226;2022-12-11T11:53:15;19.23;;;9.48;;
76021;SDS011;64718;52.124;6.226;2022-12-11T11:55:50;19.75;;;8.27;;
76021;SDS011;64718;52.124;6.226;2022-12-11T11:58:23;17.40;;;7.50;;
76021;SDS011;64718;52.124;6.226;2022-12-11T12:00:54;18.58;;;8.20;;
76021;SDS011;64718;52.124;6.226;2022-12-11T12:03:22;19.13;;;8.25;;
76021;SDS011;64718;52.124;6.226;2022-12-11T12:05:50;19.55;;;8.77;;
76021;SDS011;64718;52.124;6.226;2022-12-11T12:08:25;19.67;;;9.63;;
76021;SDS011;64718;52.124;6.226;2022-12-11T12:11:02;22.08;;;8.38;;
76021;SDS011;64718;52.124;6.226;2022-12-11T12:13:39;18.02;;;8.07;;
76021;SDS011;64718;52.124;6.226;2022-12-11T12:16:17;19.55;;;7.70;;
76021;SDS011;64718;52.124;6.226;2022-12-11T12:18:51;20.38;;;8.95;;
76021;SDS011;64718;52.124;6.226;2022-12-11T12:21:26;18.30;;;8.25;;
76021;SDS011;64718;52.124;6.226;2022-12-11T12:24:01;23.45;;;10.65;;
76021;SDS011;64718;52.124;6.226;2022-12-11T12:26:38;61.50;;;19.25;;
76021;SDS011;64718;52.124;6.226;2022-12-11T12:29:12;29.70;;;11.60;;
76021;SDS011;64718;52.124;6.226;2022-12-11T12:31:54;38.28;;;13.40;;
76021;SDS011;64718;52.124;6.226;2022-12-11T12:34:36;33.75;;;12.80;;
76021;SDS011;64718;52.124;6.226;2022-12-11T12:37:12;37.47;;;14.63;;
76021;SDS011;64718;52.124;6.226;2022-12-11T12:39:48;27.13;;;12.18;;
76021;SDS011;64718;52.124;6.226;2022-12-11T12:42:25;23.35;;;11.38;;
76021;SDS011;64718;52.124;6.226;2022-12-11T12:45:02;27.00;;;12.07;;
76021;SDS011;64718;52.124;6.226;2022-12-11T12:47:43;25.75;;;9.93;;
76021;SDS011;64718;52.124;6.226;2022-12-11T12:50:13;21.83;;;11.50;;
76021;SDS011;64718;52.124;6.226;2022-12-11T12:52:42;25.13;;;11.68;;
76021;SDS011;64718;52.124;6.226;2022-12-11T12:55:15;33.85;;;15.98;;
76021;SDS011;64718;52.124;6.226;2022-12-11T12:57:48;33.72;;;16.50;;
76021;SDS011;64718;52.124;6.226;2022-12-11T13:00:27;22.40;;;11.82;;
76021;SDS011;64718;52.124;6.226;2022-12-11T13:02:58;27.42;;;12.25;;
76021;SDS011;64718;52.124;6.226;2022-12-11T13:05:29;25.90;;;12.23;;
76021;SDS011;64718;52.124;6.226;2022-12-11T13:07:58;20.75;;;9.88;;
76021;SDS011;64718;52.124;6.226;2022-12-11T13:10:29;23.42;;;12.07;;
76021;SDS011;64718;52.124;6.226;2022-12-11T13:12:57;25.02;;;13.52;;
76021;SDS011;64718;52.124;6.226;2022-12-11T13:15:25;25.52;;;12.00;;
76021;SDS011;64718;52.124;6.226;2022-12-11T13:17:55;23.55;;;10.52;;
76021;SDS011;64718;52.124;6.226;2022-12-11T13:20:24;24.20;;;10.88;;
76021;SDS011;64718;52.124;6.226;2022-12-11T13:22:54;22.83;;;9.73;;
76021;SDS011;64718;52.124;6.226;2022-12-11T13:25:44;23.55;;;8.98;;
76021;SDS011;64718;52.124;6.226;2022-12-11T13:28:21;22.45;;;11.25;;
76021;SDS011;64718;52.124;6.226;2022-12-11T13:31:07;21.45;;;10.48;;
76021;SDS011;64718;52.124;6.226;2022-12-11T13:33:53;20.65;;;8.93;;
76021;SDS011;64718;52.124;6.226;2022-12-11T13:36:27;20.63;;;8.82;;
76021;SDS011;64718;52.124;6.226;2022-12-11T13:38:58;25.80;;;9.13;;
76021;SDS011;64718;52.124;6.226;2022-12-11T13:41:27;24.67;;;10.73;;
76021;SDS011;64718;52.124;6.226;2022-12-11T13:43:58;26.10;;;13.55;;
76021;SDS011;64718;52.124;6.226;2022-12-11T13:46:26;23.63;;;10.40;;
76021;SDS011;64718;52.124;6.226;2022-12-11T13:48:56;24.38;;;11.73;;
76021;SDS011;64718;52.124;6.226;2022-12-11T13:51:27;23.15;;;10.85;;
76021;SDS011;64718;52.124;6.226;2022-12-11T13:54:05;23.45;;;11.73;;
76021;SDS011;64718;52.124;6.226;2022-12-11T13:56:39;18.17;;;8.40;;
76021;SDS011;64718;52.124;6.226;2022-12-11T13:59:17;21.95;;;9.57;;
76021;SDS011;64718;52.124;6.226;2022-12-11T14:01:48;22.52;;;9.90;;
76021;SDS011;64718;52.124;6.226;2022-12-11T14:04:16;21.95;;;10.50;;
76021;SDS011;64718;52.124;6.226;2022-12-11T14:06:47;22.15;;;9.38;;
76021;SDS011;64718;52.124;6.226;2022-12-11T14:09:15;19.10;;;9.48;;
76021;SDS011;64718;52.124;6.226;2022-12-11T14:11:44;22.08;;;9.13;;
76021;SDS011;64718;52.124;6.226;2022-12-11T14:14:15;71.55;;;29.63;;
76021;SDS011;64718;52.124;6.226;2022-12-11T14:16:46;68.43;;;29.05;;
76021;SDS011;64718;52.124;6.226;2022-12-11T14:19:14;29.65;;;13.40;;
76021;SDS011;64718;52.124;6.226;2022-12-11T14:21:54;19.77;;;9.50;;
76021;SDS011;64718;52.124;6.226;2022-12-11T14:24:25;21.77;;;9.60;;
76021;SDS011;64718;52.124;6.226;2022-12-11T14:26:52;24.92;;;10.50;;
76021;SDS011;64718;52.124;6.226;2022-12-11T14:29:23;40.08;;;14.55;;
76021;SDS011;64718;52.124;6.226;2022-12-11T14:31:50;37.60;;;14.50;;
76021;SDS011;64718;52.124;6.226;2022-12-11T14:34:22;26.02;;;10.75;;
76021;SDS011;64718;52.124;6.226;2022-12-11T14:36:51;22.00;;;10.15;;
76021;SDS011;64718;52.124;6.226;2022-12-11T14:39:21;23.83;;;10.95;;
76021;SDS011;64718;52.124;6.226;2022-12-11T14:41:52;22.38;;;9.20;;
76021;SDS011;64718;52.124;6.226;2022-12-11T14:44:23;28.38;;;10.35;;
76021;SDS011;64718;52.124;6.226;2022-12-11T14:46:54;26.08;;;9.60;;
76021;SDS011;64718;52.124;6.226;2022-12-11T14:49:30;28.20;;;11.35;;
76021;SDS011;64718;52.124;6.226;2022-12-11T14:52:04;30.15;;;11.57;;